Enter the Airport ICAO Code

Search by Airport or City

Current Weather

LEAS | Asturias Airport (Oviedo Airport)

Oviedo, Asturias, Spain

Last Update 15 Minutes Ago

Partly Cloudy Sky

Temperature of 10 ºC

Light to Moderate Winds from East

Temperature

10 ºC

Dew Point Temperature

04 ºC

Relative Humidity

66.34 %

Wind Direction

East (100º, Ranging from 050º to 170º)

Wind Velocity

9 km/h (05 kt)

Gusts

None

Visibility

Greater than 10 Kilometers

Sea Level Pressure

1024 hPa (Hectopascals)

Layers of Clouds

5% to 30% of Sky Covered from 549 mts (1800 ft) Above Ground Level.

30% to 60% of Sky Covered from 853 mts (2800 ft) Above Ground Level.

METAR LEAS 091100Z 10005KT 050V170 9999 FEW018 SCT028 10/04 Q1024 NOSIG

Weather Forecast

LEAS | Asturias Airport (Oviedo Airport)

Oviedo, Asturias, Spain

Forecast valid for the next 22 Hours

From now on it is expected:

Mostly Cloudy Sky

Light to Moderate Winds from SouthWest

From now on it is expected 8 hours with intermittent periods of:

Moderate Winds from NorthEast

Maximum Temperature

10 ºC in 3 Hours

Minimum Temperature

06 ºC in 17 Hours

TAF LEAS 090800Z 0909/1009 21005KT 9999 BKN030 TX10/0914Z TN06/1004Z TEMPO 0911/0919 05010KT